sensor_id;sensor_type;location;lat;lon;timestamp;P1;durP1;ratioP1;P2;durP2;ratioP2
48203;SDS011;33994;50.998;5.864;2024-01-15T00:01:23;55.35;;;19.15;;
48203;SDS011;33994;50.998;5.864;2024-01-15T00:04:26;50.75;;;18.33;;
48203;SDS011;33994;50.998;5.864;2024-01-15T00:07:31;48.58;;;18.23;;
48203;SDS011;33994;50.998;5.864;2024-01-15T00:10:34;52.58;;;19.90;;
48203;SDS011;33994;50.998;5.864;2024-01-15T00:13:37;53.60;;;18.67;;
48203;SDS011;33994;50.998;5.864;2024-01-15T00:16:41;51.30;;;17.70;;
48203;SDS011;33994;50.998;5.864;2024-01-15T00:19:44;51.03;;;20.02;;
48203;SDS011;33994;50.998;5.864;2024-01-15T00:22:49;50.75;;;18.70;;
48203;SDS011;33994;50.998;5.864;2024-01-15T00:25:52;53.65;;;18.77;;
48203;SDS011;33994;50.998;5.864;2024-01-15T00:28:55;52.35;;;20.20;;
48203;SDS011;33994;50.998;5.864;2024-01-15T00:31:58;49.45;;;19.98;;
48203;SDS011;33994;50.998;5.864;2024-01-15T00:35:02;59.47;;;19.92;;
48203;SDS011;33994;50.998;5.864;2024-01-15T00:38:07;52.67;;;18.85;;
48203;SDS011;33994;50.998;5.864;2024-01-15T00:41:10;51.53;;;19.00;;
48203;SDS011;33994;50.998;5.864;2024-01-15T00:44:13;49.15;;;18.17;;
48203;SDS011;33994;50.998;5.864;2024-01-15T00:47:17;47.72;;;17.88;;
48203;SDS011;33994;50.998;5.864;2024-01-15T00:50:21;47.55;;;18.25;;
48203;SDS011;33994;50.998;5.864;2024-01-15T00:53:26;53.35;;;18.33;;
48203;SDS011;33994;50.998;5.864;2024-01-15T00:56:29;56.67;;;19.88;;
48203;SDS011;33994;50.998;5.864;2024-01-15T00:59:32;47.95;;;18.35;;
48203;SDS011;33994;50.998;5.864;2024-01-15T01:02:35;48.58;;;18.42;;
48203;SDS011;33994;50.998;5.864;2024-01-15T01:05:38;48.97;;;18.85;;
48203;SDS011;33994;50.998;5.864;2024-01-15T01:08:43;49.50;;;18.33;;
48203;SDS011;33994;50.998;5.864;2024-01-15T01:11:46;52.50;;;19.20;;
48203;SDS011;33994;50.998;5.864;2024-01-15T01:14:49;48.72;;;18.85;;
48203;SDS011;33994;50.998;5.864;2024-01-15T01:17:55;47.63;;;18.33;;
48203;SDS011;33994;50.998;5.864;2024-01-15T01:20:59;48.88;;;19.45;;
48203;SDS011;33994;50.998;5.864;2024-01-15T01:24:03;50.35;;;19.02;;
48203;SDS011;33994;50.998;5.864;2024-01-15T01:27:07;52.70;;;19.98;;
48203;SDS011;33994;50.998;5.864;2024-01-15T01:30:10;53.70;;;19.63;;
48203;SDS011;33994;50.998;5.864;2024-01-15T01:33:13;52.55;;;19.30;;
48203;SDS011;33994;50.998;5.864;2024-01-15T01:36:16;58.22;;;20.27;;
48203;SDS011;33994;50.998;5.864;2024-01-15T01:39:21;52.28;;;20.05;;
48203;SDS011;33994;50.998;5.864;2024-01-15T01:42:24;55.97;;;19.90;;
48203;SDS011;33994;50.998;5.864;2024-01-15T01:45:27;54.38;;;20.27;;
48203;SDS011;33994;50.998;5.864;2024-01-15T01:48:31;51.17;;;20.17;;
48203;SDS011;33994;50.998;5.864;2024-01-15T01:51:34;50.70;;;18.92;;
48203;SDS011;33994;50.998;5.864;2024-01-15T01:54:39;46.38;;;18.17;;
48203;SDS011;33994;50.998;5.864;2024-01-15T01:57:44;46.60;;;18.90;;
48203;SDS011;33994;50.998;5.864;2024-01-15T02:00:47;47.90;;;18.52;;
48203;SDS011;33994;50.998;5.864;2024-01-15T02:03:50;49.08;;;20.80;;
48203;SDS011;33994;50.998;5.864;2024-01-15T02:06:53;52.58;;;20.15;;
48203;SDS011;33994;50.998;5.864;2024-01-15T02:09:58;57.08;;;20.73;;
48203;SDS011;33994;50.998;5.864;2024-01-15T02:13:01;52.47;;;19.85;;
48203;SDS011;33994;50.998;5.864;2024-01-15T02:16:05;54.55;;;20.70;;
48203;SDS011;33994;50.998;5.864;2024-01-15T02:19:14;56.28;;;21.10;;
48203;SDS011;33994;50.998;5.864;2024-01-15T02:22:18;55.15;;;21.05;;
48203;SDS011;33994;50.998;5.864;2024-01-15T02:25:22;57.40;;;20.80;;
48203;SDS011;33994;50.998;5.864;2024-01-15T02:28:25;51.95;;;19.70;;
48203;SDS011;33994;50.998;5.864;2024-01-15T02:31:29;56.78;;;19.60;;
48203;SDS011;33994;50.998;5.864;2024-01-15T02:34:32;51.97;;;19.88;;
48203;SDS011;33994;50.998;5.864;2024-01-15T02:37:35;52.92;;;18.90;;
48203;SDS011;33994;50.998;5.864;2024-01-15T02:40:40;43.92;;;18.20;;
48203;SDS011;33994;50.998;5.864;2024-01-15T02:43:43;49.35;;;18.85;;
48203;SDS011;33994;50.998;5.864;2024-01-15T02:46:46;50.42;;;17.95;;
48203;SDS011;33994;50.998;5.864;2024-01-15T02:49:50;40.75;;;16.80;;
48203;SDS011;33994;50.998;5.864;2024-01-15T02:52:52;46.05;;;18.70;;
48203;SDS011;33994;50.998;5.864;2024-01-15T02:55:57;39.10;;;17.05;;
48203;SDS011;33994;50.998;5.864;2024-01-15T02:59:00;46.50;;;18.45;;
48203;SDS011;33994;50.998;5.864;2024-01-15T03:02:03;39.25;;;17.58;;
48203;SDS011;33994;50.998;5.864;2024-01-15T03:05:07;44.15;;;16.60;;
48203;SDS011;33994;50.998;5.864;2024-01-15T03:08:10;45.97;;;18.67;;
48203;SDS011;33994;50.998;5.864;2024-01-15T03:11:15;45.35;;;18.10;;
48203;SDS011;33994;50.998;5.864;2024-01-15T03:14:18;42.22;;;17.23;;
48203;SDS011;33994;50.998;5.864;2024-01-15T03:17:21;44.95;;;17.42;;
48203;SDS011;33994;50.998;5.864;2024-01-15T03:20:25;47.65;;;17.08;;
48203;SDS011;33994;50.998;5.864;2024-01-15T03:23:28;39.65;;;16.60;;
48203;SDS011;33994;50.998;5.864;2024-01-15T03:26:32;40.53;;;16.83;;
48203;SDS011;33994;50.998;5.864;2024-01-15T03:29:35;44.17;;;17.55;;
48203;SDS011;33994;50.998;5.864;2024-01-15T03:32:39;42.08;;;17.45;;
48203;SDS011;33994;50.998;5.864;2024-01-15T03:35:42;39.75;;;17.35;;
48203;SDS011;33994;50.998;5.864;2024-01-15T03:38:45;40.97;;;17.05;;
48203;SDS011;33994;50.998;5.864;2024-01-15T03:41:49;41.78;;;16.63;;
48203;SDS011;33994;50.998;5.864;2024-01-15T03:44:52;43.03;;;16.77;;
48203;SDS011;33994;50.998;5.864;2024-01-15T03:47:56;37.17;;;15.27;;
48203;SDS011;33994;50.998;5.864;2024-01-15T03:50:59;39.17;;;16.05;;
48203;SDS011;33994;50.998;5.864;2024-01-15T03:54:02;46.05;;;15.55;;
48203;SDS011;33994;50.998;5.864;2024-01-15T03:57:07;40.55;;;15.18;;
48203;SDS011;33994;50.998;5.864;2024-01-15T04:00:10;29.33;;;12.73;;
48203;SDS011;33994;50.998;5.864;2024-01-15T04:03:14;30.08;;;12.50;;
48203;SDS011;33994;50.998;5.864;2024-01-15T04:06:17;28.23;;;12.25;;
48203;SDS011;33994;50.998;5.864;2024-01-15T04:09:20;32.22;;;12.68;;
48203;SDS011;33994;50.998;5.864;2024-01-15T04:12:25;26.02;;;11.57;;
48203;SDS011;33994;50.998;5.864;2024-01-15T04:15:28;24.05;;;9.30;;
48203;SDS011;33994;50.998;5.864;2024-01-15T04:18:31;22.33;;;10.05;;
48203;SDS011;33994;50.998;5.864;2024-01-15T04:21:35;24.15;;;9.88;;
48203;SDS011;33994;50.998;5.864;2024-01-15T04:24:38;21.38;;;10.48;;
48203;SDS011;33994;50.998;5.864;2024-01-15T04:27:42;25.75;;;10.75;;
48203;SDS011;33994;50.998;5.864;2024-01-15T04:30:45;27.02;;;11.63;;
48203;SDS011;33994;50.998;5.864;2024-01-15T04:33:49;28.90;;;11.73;;
48203;SDS011;33994;50.998;5.864;2024-01-15T04:36:52;28.63;;;12.30;;
48203;SDS011;33994;50.998;5.864;2024-01-15T04:39:55;28.45;;;12.75;;
48203;SDS011;33994;50.998;5.864;2024-01-15T04:42:59;30.75;;;13.20;;
48203;SDS011;33994;50.998;5.864;2024-01-15T04:46:02;32.15;;;13.13;;
48203;SDS011;33994;50.998;5.864;2024-01-15T04:49:07;28.05;;;12.60;;
48203;SDS011;33994;50.998;5.864;2024-01-15T04:52:11;34.05;;;13.95;;
48203;SDS011;33994;50.998;5.864;2024-01-15T04:55:14;35.50;;;13.35;;
48203;SDS011;33994;50.998;5.864;2024-01-15T04:58:18;32.70;;;13.73;;
48203;SDS011;33994;50.998;5.864;2024-01-15T05:01:22;32.95;;;13.07;;
48203;SDS011;33994;50.998;5.864;2024-01-15T05:04:25;32.17;;;12.80;;
48203;SDS011;33994;50.998;5.864;2024-01-15T05:07:28;28.27;;;12.77;;
48203;SDS011;33994;50.998;5.864;2024-01-15T05:10:31;28.02;;;12.10;;
48203;SDS011;33994;50.998;5.864;2024-01-15T05:13:36;30.63;;;12.63;;
48203;SDS011;33994;50.998;5.864;2024-01-15T05:16:39;32.05;;;12.38;;
48203;SDS011;33994;50.998;5.864;2024-01-15T05:19:42;26.20;;;10.82;;
48203;SDS011;33994;50.998;5.864;2024-01-15T05:22:46;27.10;;;11.27;;
48203;SDS011;33994;50.998;5.864;2024-01-15T05:25:50;29.17;;;12.35;;
48203;SDS011;33994;50.998;5.864;2024-01-15T05:28:54;30.85;;;12.57;;
48203;SDS011;33994;50.998;5.864;2024-01-15T05:31:57;26.50;;;12.18;;
48203;SDS011;33994;50.998;5.864;2024-01-15T05:35:00;28.92;;;12.43;;
48203;SDS011;33994;50.998;5.864;2024-01-15T05:38:03;28.50;;;12.77;;
48203;SDS011;33994;50.998;5.864;2024-01-15T05:41:06;25.95;;;11.40;;
48203;SDS011;33994;50.998;5.864;2024-01-15T05:44:11;30.83;;;12.48;;
48203;SDS011;33994;50.998;5.864;2024-01-15T05:47:14;20.20;;;10.35;;
48203;SDS011;33994;50.998;5.864;2024-01-15T05:50:18;25.52;;;11.85;;
48203;SDS011;33994;50.998;5.864;2024-01-15T05:53:21;25.75;;;11.55;;
48203;SDS011;33994;50.998;5.864;2024-01-15T05:56:24;24.77;;;11.98;;
48203;SDS011;33994;50.998;5.864;2024-01-15T05:59:29;29.77;;;12.15;;
48203;SDS011;33994;50.998;5.864;2024-01-15T06:02:32;26.55;;;12.05;;
48203;SDS011;33994;50.998;5.864;2024-01-15T06:05:35;25.90;;;13.02;;
48203;SDS011;33994;50.998;5.864;2024-01-15T06:08:38;28.33;;;11.82;;
48203;SDS011;33994;50.998;5.864;2024-01-15T06:11:42;28.75;;;13.15;;
48203;SDS011;33994;50.998;5.864;2024-01-15T06:14:46;29.50;;;13.50;;
48203;SDS011;33994;50.998;5.864;2024-01-15T06:17:49;25.10;;;12.88;;
48203;SDS011;33994;50.998;5.864;2024-01-15T06:20:52;29.55;;;12.95;;
48203;SDS011;33994;50.998;5.864;2024-01-15T06:23:56;30.55;;;13.68;;
48203;SDS011;33994;50.998;5.864;2024-01-15T06:26:59;33.47;;;13.77;;
48203;SDS011;33994;50.998;5.864;2024-01-15T06:30:04;32.22;;;13.48;;
48203;SDS011;33994;50.998;5.864;2024-01-15T06:33:07;34.63;;;14.85;;
48203;SDS011;33994;50.998;5.864;2024-01-15T06:36:11;34.63;;;14.18;;
48203;SDS011;33994;50.998;5.864;2024-01-15T06:39:14;34.28;;;14.73;;
48203;SDS011;33994;50.998;5.864;2024-01-15T06:42:17;34.25;;;14.77;;
48203;SDS011;33994;50.998;5.864;2024-01-15T06:45:22;35.55;;;15.93;;
48203;SDS011;33994;50.998;5.864;2024-01-15T06:48:25;36.38;;;14.27;;
48203;SDS011;33994;50.998;5.864;2024-01-15T06:51:32;36.67;;;16.42;;
48203;SDS011;33994;50.998;5.864;2024-01-15T06:54:35;35.13;;;15.90;;
48203;SDS011;33994;50.998;5.864;2024-01-15T06:57:38;38.60;;;15.68;;
48203;SDS011;33994;50.998;5.864;2024-01-15T07:00:43;40.30;;;15.80;;
48203;SDS011;33994;50.998;5.864;2024-01-15T07:03:46;38.40;;;15.60;;
48203;SDS011;33994;50.998;5.864;2024-01-15T07:06:49;34.53;;;15.23;;
48203;SDS011;33994;50.998;5.864;2024-01-15T07:09:52;39.85;;;16.80;;
48203;SDS011;33994;50.998;5.864;2024-01-15T07:12:55;35.97;;;15.05;;
48203;SDS011;33994;50.998;5.864;2024-01-15T07:16:00;36.00;;;17.48;;
48203;SDS011;33994;50.998;5.864;2024-01-15T07:19:03;37.50;;;15.43;;
48203;SDS011;33994;50.998;5.864;2024-01-15T07:22:06;37.90;;;15.73;;
48203;SDS011;33994;50.998;5.864;2024-01-15T07:25:10;38.75;;;16.67;;
48203;SDS011;33994;50.998;5.864;2024-01-15T07:28:13;39.83;;;16.08;;
48203;SDS011;33994;50.998;5.864;2024-01-15T07:31:18;34.03;;;15.65;;
48203;SDS011;33994;50.998;5.864;2024-01-15T07:34:21;35.35;;;14.80;;
48203;SDS011;33994;50.998;5.864;2024-01-15T07:37:24;38.95;;;16.05;;
48203;SDS011;33994;50.998;5.864;2024-01-15T07:40:27;35.75;;;14.65;;
48203;SDS011;33994;50.998;5.864;2024-01-15T07:43:30;38.50;;;14.60;;
48203;SDS011;33994;50.998;5.864;2024-01-15T07:46:35;35.83;;;16.05;;
48203;SDS011;33994;50.998;5.864;2024-01-15T07:49:38;34.33;;;13.65;;
48203;SDS011;33994;50.998;5.864;2024-01-15T07:52:41;29.15;;;12.88;;
48203;SDS011;33994;50.998;5.864;2024-01-15T07:55:44;35.40;;;14.85;;
48203;SDS011;33994;50.998;5.864;2024-01-15T07:58:47;30.02;;;13.10;;
48203;SDS011;33994;50.998;5.864;2024-01-15T08:01:52;29.15;;;12.93;;
48203;SDS011;33994;50.998;5.864;2024-01-15T08:04:56;30.67;;;13.15;;
48203;SDS011;33994;50.998;5.864;2024-01-15T08:07:59;27.88;;;13.10;;
48203;SDS011;33994;50.998;5.864;2024-01-15T08:11:02;26.85;;;12.50;;
48203;SDS011;33994;50.998;5.864;2024-01-15T08:14:06;29.55;;;12.05;;
48203;SDS011;33994;50.998;5.864;2024-01-15T08:17:11;25.88;;;11.75;;
48203;SDS011;33994;50.998;5.864;2024-01-15T08:20:14;23.80;;;10.82;;
48203;SDS011;33994;50.998;5.864;2024-01-15T08:23:16;24.40;;;11.80;;
48203;SDS011;33994;50.998;5.864;2024-01-15T08:26:20;28.20;;;11.32;;
48203;SDS011;33994;50.998;5.864;2024-01-15T08:29:23;22.33;;;10.10;;
48203;SDS011;33994;50.998;5.864;2024-01-15T08:32:27;18.77;;;9.27;;
48203;SDS011;33994;50.998;5.864;2024-01-15T08:35:30;19.58;;;9.18;;
48203;SDS011;33994;50.998;5.864;2024-01-15T08:38:34;22.02;;;9.20;;
48203;SDS011;33994;50.998;5.864;2024-01-15T08:41:37;19.70;;;8.27;;
48203;SDS011;33994;50.998;5.864;2024-01-15T08:44:40;14.55;;;7.65;;
48203;SDS011;33994;50.998;5.864;2024-01-15T08:47:44;15.90;;;8.02;;
48203;SDS011;33994;50.998;5.864;2024-01-15T08:50:47;15.98;;;8.07;;
48203;SDS011;33994;50.998;5.864;2024-01-15T08:53:50;14.82;;;7.55;;
48203;SDS011;33994;50.998;5.864;2024-01-15T08:56:53;17.08;;;7.82;;
48203;SDS011;33994;50.998;5.864;2024-01-15T08:59:57;14.48;;;8.48;;
48203;SDS011;33994;50.998;5.864;2024-01-15T09:03:02;13.75;;;7.75;;
48203;SDS011;33994;50.998;5.864;2024-01-15T09:06:05;11.85;;;7.20;;
48203;SDS011;33994;50.998;5.864;2024-01-15T09:09:08;17.50;;;6.65;;
48203;SDS011;33994;50.998;5.864;2024-01-15T09:12:12;12.00;;;6.63;;
48203;SDS011;33994;50.998;5.864;2024-01-15T09:15:15;12.18;;;6.50;;
48203;SDS011;33994;50.998;5.864;2024-01-15T09:18:20;14.95;;;6.82;;
48203;SDS011;33994;50.998;5.864;2024-01-15T09:21:23;10.65;;;4.93;;
48203;SDS011;33994;50.998;5.864;2024-01-15T09:24:26;10.18;;;5.20;;
48203;SDS011;33994;50.998;5.864;2024-01-15T09:27:29;10.73;;;5.05;;
48203;SDS011;33994;50.998;5.864;2024-01-15T09:30:33;10.43;;;5.35;;
48203;SDS011;33994;50.998;5.864;2024-01-15T09:33:37;9.43;;;4.95;;
48203;SDS011;33994;50.998;5.864;2024-01-15T09:36:40;10.23;;;4.53;;
48203;SDS011;33994;50.998;5.864;2024-01-15T09:39:44;12.18;;;4.47;;
48203;SDS011;33994;50.998;5.864;2024-01-15T09:42:47;6.85;;;3.88;;
48203;SDS011;33994;50.998;5.864;2024-01-15T09:45:50;10.02;;;4.70;;
48203;SDS011;33994;50.998;5.864;2024-01-15T09:48:55;8.63;;;4.82;;
48203;SDS011;33994;50.998;5.864;2024-01-15T09:51:58;9.57;;;4.30;;
48203;SDS011;33994;50.998;5.864;2024-01-15T09:55:03;9.18;;;4.70;;
48203;SDS011;33994;50.998;5.864;2024-01-15T09:58:06;10.00;;;5.30;;
48203;SDS011;33994;50.998;5.864;2024-01-15T10:01:10;13.25;;;6.28;;
48203;SDS011;33994;50.998;5.864;2024-01-15T10:04:16;15.80;;;6.97;;
48203;SDS011;33994;50.998;5.864;2024-01-15T10:07:20;11.77;;;7.10;;
48203;SDS011;33994;50.998;5.864;2024-01-15T10:10:24;15.27;;;7.03;;
48203;SDS011;33994;50.998;5.864;2024-01-15T10:13:27;11.18;;;6.78;;
48203;SDS011;33994;50.998;5.864;2024-01-15T10:16:32;14.43;;;7.63;;
48203;SDS011;33994;50.998;5.864;2024-01-15T10:19:37;9.18;;;6.05;;
48203;SDS011;33994;50.998;5.864;2024-01-15T10:22:41;11.40;;;6.60;;
48203;SDS011;33994;50.998;5.864;2024-01-15T10:25:44;12.27;;;6.97;;
48203;SDS011;33994;50.998;5.864;2024-01-15T10:28:49;14.25;;;6.95;;
48203;SDS011;33994;50.998;5.864;2024-01-15T10:31:53;15.00;;;7.53;;
48203;SDS011;33994;50.998;5.864;2024-01-15T10:34:57;12.32;;;6.72;;
48203;SDS011;33994;50.998;5.864;2024-01-15T10:38:01;13.15;;;5.80;;
48203;SDS011;33994;50.998;5.864;2024-01-15T10:41:04;12.85;;;6.05;;
48203;SDS011;33994;50.998;5.864;2024-01-15T10:44:07;14.80;;;7.18;;
48203;SDS011;33994;50.998;5.864;2024-01-15T10:47:11;12.27;;;4.57;;
48203;SDS011;33994;50.998;5.864;2024-01-15T10:50:15;9.57;;;4.75;;
48203;SDS011;33994;50.998;5.864;2024-01-15T10:53:19;14.65;;;4.75;;
48203;SDS011;33994;50.998;5.864;2024-01-15T10:56:24;12.93;;;3.83;;
48203;SDS011;33994;50.998;5.864;2024-01-15T10:59:28;17.52;;;4.22;;
48203;SDS011;33994;50.998;5.864;2024-01-15T11:02:31;9.95;;;4.32;;
48203;SDS011;33994;50.998;5.864;2024-01-15T11:05:37;14.75;;;3.50;;
48203;SDS011;33994;50.998;5.864;2024-01-15T11:08:41;13.85;;;4.35;;
48203;SDS011;33994;50.998;5.864;2024-01-15T11:11:45;12.48;;;3.90;;
48203;SDS011;33994;50.998;5.864;2024-01-15T11:14:50;13.45;;;4.00;;
48203;SDS011;33994;50.998;5.864;2024-01-15T11:17:57;13.43;;;4.60;;
48203;SDS011;33994;50.998;5.864;2024-01-15T11:21:22;14.15;;;4.03;;
48203;SDS011;33994;50.998;5.864;2024-01-15T11:24:33;16.80;;;4.63;;
48203;SDS011;33994;50.998;5.864;2024-01-15T11:27:40;11.90;;;4.50;;
48203;SDS011;33994;50.998;5.864;2024-01-15T11:30:44;13.15;;;4.30;;
48203;SDS011;33994;50.998;5.864;2024-01-15T11:33:48;12.60;;;3.60;;
48203;SDS011;33994;50.998;5.864;2024-01-15T11:37:02;13.05;;;4.20;;
48203;SDS011;33994;50.998;5.864;2024-01-15T11:40:06;10.00;;;2.92;;
48203;SDS011;33994;50.998;5.864;2024-01-15T11:43:09;15.80;;;4.00;;
48203;SDS011;33994;50.998;5.864;2024-01-15T11:46:12;11.23;;;3.28;;
48203;SDS011;33994;50.998;5.864;2024-01-15T11:49:15;15.63;;;3.20;;
48203;SDS011;33994;50.998;5.864;2024-01-15T11:52:33;17.40;;;3.25;;
48203;SDS011;33994;50.998;5.864;2024-01-15T11:55:38;9.15;;;3.30;;
48203;SDS011;33994;50.998;5.864;2024-01-15T11:58:44;11.15;;;3.03;;
48203;SDS011;33994;50.998;5.864;2024-01-15T12:01:47;9.55;;;3.45;;
48203;SDS011;33994;50.998;5.864;2024-01-15T12:04:51;9.25;;;2.72;;
48203;SDS011;33994;50.998;5.864;2024-01-15T12:07:55;7.45;;;2.63;;
48203;SDS011;33994;50.998;5.864;2024-01-15T12:10:58;9.95;;;2.63;;
48203;SDS011;33994;50.998;5.864;2024-01-15T12:14:01;12.02;;;2.85;;
48203;SDS011;33994;50.998;5.864;2024-01-15T12:17:05;5.22;;;2.45;;
48203;SDS011;33994;50.998;5.864;2024-01-15T12:20:09;4.28;;;2.05;;
48203;SDS011;33994;50.998;5.864;2024-01-15T12:23:15;7.45;;;2.20;;
48203;SDS011;33994;50.998;5.864;2024-01-15T12:26:18;8.18;;;2.67;;
48203;SDS011;33994;50.998;5.864;2024-01-15T12:29:21;8.80;;;2.17;;
48203;SDS011;33994;50.998;5.864;2024-01-15T12:32:25;5.53;;;2.22;;
48203;SDS011;33994;50.998;5.864;2024-01-15T12:35:28;5.03;;;2.85;;
48203;SDS011;33994;50.998;5.864;2024-01-15T12:38:33;6.35;;;2.45;;
48203;SDS011;33994;50.998;5.864;2024-01-15T12:41:36;8.77;;;3.53;;
48203;SDS011;33994;50.998;5.864;2024-01-15T12:44:39;8.57;;;3.03;;
48203;SDS011;33994;50.998;5.864;2024-01-15T12:47:42;7.25;;;3.25;;
48203;SDS011;33994;50.998;5.864;2024-01-15T12:50:46;6.72;;;3.17;;
48203;SDS011;33994;50.998;5.864;2024-01-15T12:53:51;4.68;;;2.70;;
48203;SDS011;33994;50.998;5.864;2024-01-15T12:56:54;6.30;;;2.22;;
48203;SDS011;33994;50.998;5.864;2024-01-15T12:59:57;4.95;;;2.10;;
48203;SDS011;33994;50.998;5.864;2024-01-15T13:03:01;6.20;;;2.15;;
48203;SDS011;33994;50.998;5.864;2024-01-15T13:06:05;4.13;;;1.60;;
48203;SDS011;33994;50.998;5.864;2024-01-15T13:09:10;5.68;;;1.27;;
48203;SDS011;33994;50.998;5.864;2024-01-15T13:12:13;2.63;;;1.30;;
48203;SDS011;33994;50.998;5.864;2024-01-15T13:15:17;7.78;;;1.10;;
48203;SDS011;33994;50.998;5.864;2024-01-15T13:18:20;8.85;;;1.17;;
48203;SDS011;33994;50.998;5.864;2024-01-15T13:21:23;6.75;;;1.00;;
48203;SDS011;33994;50.998;5.864;2024-01-15T13:24:28;5.97;;;0.93;;
48203;SDS011;33994;50.998;5.864;2024-01-15T13:27:31;5.05;;;2.45;;
48203;SDS011;33994;50.998;5.864;2024-01-15T13:30:34;6.15;;;1.55;;
48203;SDS011;33994;50.998;5.864;2024-01-15T13:33:38;3.90;;;1.10;;
48203;SDS011;33994;50.998;5.864;2024-01-15T13:36:41;4.95;;;1.38;;
48203;SDS011;33994;50.998;5.864;2024-01-15T13:39:45;5.13;;;1.60;;
48203;SDS011;33994;50.998;5.864;2024-01-15T13:42:48;1.77;;;1.20;;
48203;SDS011;33994;50.998;5.864;2024-01-15T13:45:52;1.50;;;1.40;;
48203;SDS011;33994;50.998;5.864;2024-01-15T13:48:55;4.30;;;1.88;;
48203;SDS011;33994;50.998;5.864;2024-01-15T13:51:58;5.03;;;2.10;;
48203;SDS011;33994;50.998;5.864;2024-01-15T13:55:03;3.63;;;2.13;;
48203;SDS011;33994;50.998;5.864;2024-01-15T13:58:06;5.40;;;2.00;;
48203;SDS011;33994;50.998;5.864;2024-01-15T14:01:09;7.20;;;2.22;;
48203;SDS011;33994;50.998;5.864;2024-01-15T14:04:13;5.95;;;2.92;;
48203;SDS011;33994;50.998;5.864;2024-01-15T14:07:16;5.50;;;2.17;;
48203;SDS011;33994;50.998;5.864;2024-01-15T14:10:21;5.22;;;2.13;;
48203;SDS011;33994;50.998;5.864;2024-01-15T14:13:24;3.42;;;1.60;;
48203;SDS011;33994;50.998;5.864;2024-01-15T14:16:27;3.50;;;1.58;;
48203;SDS011;33994;50.998;5.864;2024-01-15T14:19:31;3.53;;;1.30;;
48203;SDS011;33994;50.998;5.864;2024-01-15T14:22:34;4.05;;;1.80;;
48203;SDS011;33994;50.998;5.864;2024-01-15T14:25:39;2.45;;;1.50;;
48203;SDS011;33994;50.998;5.864;2024-01-15T14:28:42;5.97;;;1.67;;
48203;SDS011;33994;50.998;5.864;2024-01-15T14:31:45;4.22;;;1.35;;
48203;SDS011;33994;50.998;5.864;2024-01-15T14:34:48;2.55;;;1.60;;
48203;SDS011;33994;50.998;5.864;2024-01-15T14:37:52;7.88;;;3.10;;
48203;SDS011;33994;50.998;5.864;2024-01-15T14:40:56;6.97;;;1.65;;
48203;SDS011;33994;50.998;5.864;2024-01-15T14:44:00;6.72;;;1.38;;
48203;SDS011;33994;50.998;5.864;2024-01-15T14:47:03;5.03;;;2.17;;
48203;SDS011;33994;50.998;5.864;2024-01-15T14:50:07;6.57;;;2.28;;
48203;SDS011;33994;50.998;5.864;2024-01-15T14:53:11;7.22;;;1.80;;
48203;SDS011;33994;50.998;5.864;2024-01-15T14:56:16;5.35;;;1.75;;
48203;SDS011;33994;50.998;5.864;2024-01-15T14:59:19;5.80;;;1.73;;
48203;SDS011;33994;50.998;5.864;2024-01-15T15:02:22;6.40;;;2.13;;
48203;SDS011;33994;50.998;5.864;2024-01-15T15:05:26;4.60;;;2.40;;
48203;SDS011;33994;50.998;5.864;2024-01-15T15:08:29;5.07;;;2.55;;
48203;SDS011;33994;50.998;5.864;2024-01-15T15:11:33;9.32;;;2.65;;
48203;SDS011;33994;50.998;5.864;2024-01-15T15:14:37;5.07;;;2.85;;
48203;SDS011;33994;50.998;5.864;2024-01-15T15:17:40;4.25;;;2.05;;
48203;SDS011;33994;50.998;5.864;2024-01-15T15:20:43;5.28;;;2.28;;
48203;SDS011;33994;50.998;5.864;2024-01-15T15:23:46;3.08;;;1.67;;
48203;SDS011;33994;50.998;5.864;2024-01-15T15:26:51;4.25;;;2.55;;
48203;SDS011;33994;50.998;5.864;2024-01-15T15:29:53;6.82;;;2.13;;
48203;SDS011;33994;50.998;5.864;2024-01-15T15:32:57;7.55;;;2.25;;
48203;SDS011;33994;50.998;5.864;2024-01-15T15:36:00;9.25;;;2.20;;
48203;SDS011;33994;50.998;5.864;2024-01-15T15:39:03;8.25;;;3.00;;
48203;SDS011;33994;50.998;5.864;2024-01-15T15:42:08;5.43;;;2.22;;
48203;SDS011;33994;50.998;5.864;2024-01-15T15:45:11;7.65;;;2.85;;
48203;SDS011;33994;50.998;5.864;2024-01-15T15:48:15;3.92;;;2.03;;
48203;SDS011;33994;50.998;5.864;2024-01-15T15:51:18;6.18;;;2.30;;
48203;SDS011;33994;50.998;5.864;2024-01-15T15:54:21;6.00;;;2.78;;
48203;SDS011;33994;50.998;5.864;2024-01-15T15:57:26;7.63;;;2.63;;
48203;SDS011;33994;50.998;5.864;2024-01-15T16:00:29;6.15;;;2.55;;
48203;SDS011;33994;50.998;5.864;2024-01-15T16:03:32;6.43;;;2.45;;
48203;SDS011;33994;50.998;5.864;2024-01-15T16:06:36;8.82;;;3.10;;
48203;SDS011;33994;50.998;5.864;2024-01-15T16:09:39;5.82;;;2.30;;
48203;SDS011;33994;50.998;5.864;2024-01-15T16:12:44;7.55;;;2.13;;
48203;SDS011;33994;50.998;5.864;2024-01-15T16:15:47;5.22;;;2.78;;
48203;SDS011;33994;50.998;5.864;2024-01-15T16:18:50;5.40;;;2.85;;
48203;SDS011;33994;50.998;5.864;2024-01-15T16:21:53;5.63;;;2.38;;
48203;SDS011;33994;50.998;5.864;2024-01-15T16:24:57;7.40;;;2.40;;
48203;SDS011;33994;50.998;5.864;2024-01-15T16:28:02;8.38;;;2.75;;
48203;SDS011;33994;50.998;5.864;2024-01-15T16:31:05;10.98;;;2.95;;
48203;SDS011;33994;50.998;5.864;2024-01-15T16:34:08;5.15;;;2.65;;
48203;SDS011;33994;50.998;5.864;2024-01-15T16:37:12;9.40;;;2.40;;
48203;SDS011;33994;50.998;5.864;2024-01-15T16:40:15;5.70;;;2.55;;
48203;SDS011;33994;50.998;5.864;2024-01-15T16:43:21;13.18;;;2.55;;
48203;SDS011;33994;50.998;5.864;2024-01-15T16:46:24;4.90;;;2.20;;
48203;SDS011;33994;50.998;5.864;2024-01-15T16:49:28;5.82;;;1.77;;
48203;SDS011;33994;50.998;5.864;2024-01-15T16:52:31;7.57;;;2.00;;
48203;SDS011;33994;50.998;5.864;2024-01-15T16:55:34;11.32;;;2.80;;
48203;SDS011;33994;50.998;5.864;2024-01-15T16:58:38;8.90;;;1.85;;
48203;SDS011;33994;50.998;5.864;2024-01-15T17:01:41;6.15;;;2.20;;
48203;SDS011;33994;50.998;5.864;2024-01-15T17:04:45;7.55;;;2.53;;
48203;SDS011;33994;50.998;5.864;2024-01-15T17:07:48;11.40;;;3.25;;
48203;SDS011;33994;50.998;5.864;2024-01-15T17:10:51;10.90;;;3.08;;
48203;SDS011;33994;50.998;5.864;2024-01-15T17:13:56;12.35;;;3.83;;
48203;SDS011;33994;50.998;5.864;2024-01-15T17:16:59;9.98;;;3.83;;
48203;SDS011;33994;50.998;5.864;2024-01-15T17:20:03;14.65;;;4.25;;
48203;SDS011;33994;50.998;5.864;2024-01-15T17:23:07;11.10;;;4.30;;
48203;SDS011;33994;50.998;5.864;2024-01-15T17:26:10;7.38;;;3.95;;
48203;SDS011;33994;50.998;5.864;2024-01-15T17:29:14;9.07;;;4.20;;
48203;SDS011;33994;50.998;5.864;2024-01-15T17:32:18;12.50;;;4.85;;
48203;SDS011;33994;50.998;5.864;2024-01-15T17:35:21;12.75;;;4.85;;
48203;SDS011;33994;50.998;5.864;2024-01-15T17:38:24;12.88;;;5.38;;
48203;SDS011;33994;50.998;5.864;2024-01-15T17:41:27;10.13;;;5.63;;
48203;SDS011;33994;50.998;5.864;2024-01-15T17:44:31;15.98;;;5.85;;
48203;SDS011;33994;50.998;5.864;2024-01-15T17:47:34;16.27;;;6.07;;
48203;SDS011;33994;50.998;5.864;2024-01-15T17:50:38;11.00;;;6.10;;
48203;SDS011;33994;50.998;5.864;2024-01-15T17:53:41;15.88;;;6.90;;
48203;SDS011;33994;50.998;5.864;2024-01-15T17:56:44;12.50;;;6.68;;
48203;SDS011;33994;50.998;5.864;2024-01-15T17:59:49;14.68;;;6.88;;
48203;SDS011;33994;50.998;5.864;2024-01-15T18:02:52;11.38;;;6.53;;
48203;SDS011;33994;50.998;5.864;2024-01-15T18:05:55;13.35;;;6.85;;
48203;SDS011;33994;50.998;5.864;2024-01-15T18:08:58;14.13;;;6.45;;